Time;durP1;ratioP1;P1;durP2;ratioP2;P2;SDS_P1;SDS_P2;PMS_P1;PMS_P2;Temp;Humidity;BMP_temperature;BMP_pressure;BME280_temperature;BME280_humidity;BME280_pressure;Samples;Min_cycle;Max_cycle;Signal;HPM_P1;HPM_P2
2023/08/01 00:01:53;;;;;;;16.08;9.55;;;16.50;99.90;;;;;;4999060;28;20494;-66
2023/08/01 00:04:18;;;;;;;16.50;9.43;;;16.50;99.90;;;;;;4998782;28;20050;-67
2023/08/01 00:06:44;;;;;;;12.57;9.82;;;16.50;99.90;;;;;;4966375;28;20042;-67
2023/08/01 00:09:10;;;;;;;17.55;10.48;;;16.40;99.90;;;;;;4966633;28;20503;-67
2023/08/01 00:11:42;;;;;;;17.42;10.60;;;16.50;99.90;;;;;;4998574;28;20046;-71
2023/08/01 00:14:08;;;;;;;;;;;16.40;99.90;;;;;;4983413;28;20042;-70
2023/08/01 00:16:34;;;;;;;21.65;12.60;;;16.40;99.90;;;;;;4983083;28;19917;-70
2023/08/01 00:19:18;;;;;;;17.13;12.30;;;16.40;99.90;;;;;;4988222;28;20418;-72
2023/08/01 00:21:44;;;;;;;15.32;11.18;;;16.40;99.90;;;;;;4983402;28;20044;-72
2023/08/01 00:24:10;;;;;;;21.13;13.00;;;16.40;99.90;;;;;;4982811;28;20037;-71
2023/08/01 00:26:35;;;;;;;15.45;11.48;;;16.40;99.90;;;;;;4982783;28;20038;-71
2023/08/01 00:29:02;;;;;;;19.23;12.48;;;16.40;99.90;;;;;;4967684;28;20046;-71
2023/08/01 00:31:28;;;;;;;18.67;12.55;;;16.40;99.90;;;;;;4998872;28;20115;-71
2023/08/01 00:33:54;;;;;;;17.88;12.88;;;16.40;99.90;;;;;;4998089;28;20049;-71
2023/08/01 00:36:19;;;;;;;18.00;12.68;;;16.40;99.90;;;;;;4982718;28;20049;-71
2023/08/01 00:38:45;;;;;;;21.88;14.98;;;16.30;99.90;;;;;;4999094;28;20046;-71
2023/08/01 00:41:12;;;;;;;17.90;12.57;;;16.30;99.90;;;;;;4983113;28;20080;-71
2023/08/01 00:43:37;;;;;;;26.40;15.57;;;16.30;99.90;;;;;;4996710;28;20378;-70
2023/08/01 00:46:09;;;;;;;20.30;13.45;;;16.40;99.90;;;;;;4998655;28;20068;-71
2023/08/01 00:48:35;;;;;;;17.50;13.87;;;16.30;99.90;;;;;;4998518;28;20042;-72
2023/08/01 00:51:06;;;;;;;20.13;13.30;;;16.30;99.90;;;;;;4998506;28;20703;-71
2023/08/01 00:53:32;;;;;;;21.65;14.10;;;16.40;99.90;;;;;;4998260;28;20041;-71
2023/08/01 00:55:59;;;;;;;19.73;14.13;;;16.30;99.90;;;;;;4982229;28;20049;-67
2023/08/01 00:58:28;;;;;;;18.77;13.10;;;16.40;99.90;;;;;;4981574;28;20140;-67
2023/08/01 01:00:55;;;;;;;17.75;13.18;;;16.40;99.90;;;;;;4997732;28;20042;-68
2023/08/01 01:03:21;;;;;;;20.63;13.35;;;16.40;99.90;;;;;;4997587;28;20045;-68
2023/08/01 01:06:17;;;;;;;19.75;14.45;;;16.40;99.90;;;;;;4981502;28;20204;-68
2023/08/01 01:08:43;;;;;;;19.92;14.15;;;16.40;99.90;;;;;;4986078;28;20109;-69
2023/08/01 01:11:12;;;;;;;25.52;15.02;;;16.40;99.90;;;;;;4998037;28;20138;-68
2023/08/01 01:13:38;;;;;;;17.27;12.45;;;16.40;99.90;;;;;;4997363;28;20607;-68
2023/08/01 01:16:03;;;;;;;18.45;12.95;;;16.40;99.90;;;;;;4997423;28;20045;-68
2023/08/01 01:18:29;;;;;;;18.40;13.35;;;16.40;99.90;;;;;;4997388;28;20052;-68
2023/08/01 01:20:55;;;;;;;19.30;12.98;;;16.40;99.90;;;;;;4981135;28;20038;-67
2023/08/01 01:23:22;;;;;;;18.83;11.75;;;16.40;99.90;;;;;;5013833;28;20042;-67
2023/08/01 01:25:50;;;;;;;17.17;12.25;;;16.40;99.90;;;;;;4981363;28;20042;-66
2023/08/01 01:28:16;;;;;;;21.77;13.75;;;16.40;99.90;;;;;;4996820;28;20054;-67
2023/08/01 01:30:45;;;;;;;19.35;12.63;;;16.40;99.90;;;;;;4997073;28;20053;-68
2023/08/01 01:33:12;;;;;;;16.73;12.73;;;16.40;99.90;;;;;;4981077;28;20038;-68
2023/08/01 01:35:37;;;;;;;19.63;12.25;;;16.30;99.90;;;;;;4980929;28;20288;-67
2023/08/01 01:38:04;;;;;;;19.95;12.23;;;16.30;99.90;;;;;;4964832;28;20541;-67
2023/08/01 01:40:34;;;;;;;20.70;12.70;;;16.30;99.90;;;;;;4996913;28;20125;-67
2023/08/01 01:43:01;;;;;;;18.35;11.88;;;16.30;99.90;;;;;;4997133;28;20045;-68
2023/08/01 01:45:27;;;;;;;16.70;11.13;;;16.30;99.90;;;;;;4980873;28;20033;-68
2023/08/01 01:47:54;;;;;;;16.75;11.70;;;16.30;99.90;;;;;;4997004;28;20041;-68
2023/08/01 01:50:20;;;;;;;16.98;10.82;;;16.30;99.90;;;;;;4996700;28;20045;-68
2023/08/01 01:52:46;;;;;;;15.25;10.90;;;16.30;99.90;;;;;;4964717;28;20064;-68
2023/08/01 01:55:12;;;;;;;16.50;12.18;;;16.30;99.90;;;;;;4980722;28;20041;-68
2023/08/01 01:57:38;;;;;;;17.88;12.20;;;16.30;99.90;;;;;;4996447;28;20053;-67
2023/08/01 02:00:05;;;;;;;16.00;11.75;;;16.30;99.90;;;;;;4980493;28;20056;-68
2023/08/01 02:02:31;;;;;;;19.60;12.02;;;16.30;99.90;;;;;;4996645;28;20077;-68
2023/08/01 02:04:57;;;;;;;19.55;11.35;;;16.30;99.90;;;;;;4997057;28;20084;-67
2023/08/01 02:07:26;;;;;;;17.50;12.15;;;16.30;99.90;;;;;;4966234;28;20041;-73
2023/08/01 02:09:52;;;;;;;18.00;11.05;;;16.30;99.90;;;;;;4980501;28;20125;-72
2023/08/01 02:12:18;;;;;;;18.63;10.90;;;16.30;99.90;;;;;;4980974;28;20085;-72
2023/08/01 02:14:47;;;;;;;17.73;10.88;;;16.30;99.90;;;;;;4981120;28;20088;-71
2023/08/01 02:17:13;;;;;;;20.25;12.18;;;16.30;99.90;;;;;;4980856;28;20134;-68
2023/08/01 02:19:39;;;;;;;16.30;11.38;;;16.30;99.90;;;;;;4980141;28;20042;-67
2023/08/01 02:22:05;;;;;;;19.90;12.73;;;16.30;99.90;;;;;;4996589;28;20520;-67
2023/08/01 02:24:31;;;;;;;17.98;11.35;;;16.20;99.90;;;;;;4979975;28;20038;-68
2023/08/01 02:26:57;;;;;;;18.25;10.88;;;16.20;99.90;;;;;;4963834;28;20046;-71
2023/08/01 02:29:23;;;;;;;17.75;10.50;;;16.20;99.90;;;;;;4996819;28;20411;-72
2023/08/01 02:31:48;;;;;;;17.27;10.40;;;16.20;99.90;;;;;;4997240;28;20401;-72
2023/08/01 02:34:14;;;;;;;14.90;10.35;;;16.20;99.90;;;;;;4996918;28;20045;-72
2023/08/01 02:36:40;;;;;;;15.68;10.70;;;16.10;99.90;;;;;;4996780;28;20041;-72
2023/08/01 02:39:06;;;;;;;17.60;10.75;;;16.10;99.90;;;;;;4980756;28;20140;-73
2023/08/01 02:41:32;;;;;;;15.70;10.10;;;16.10;99.90;;;;;;4980625;28;20077;-73
2023/08/01 02:43:58;;;;;;;20.95;11.82;;;16.10;99.90;;;;;;5012868;28;20046;-73
2023/08/01 02:46:24;;;;;;;17.85;11.68;;;16.10;99.90;;;;;;4996473;28;20040;-73
2023/08/01 02:48:49;;;;;;;18.15;12.25;;;16.10;99.90;;;;;;4996383;28;20105;-72
2023/08/01 02:51:16;;;;;;;16.83;11.88;;;16.00;99.90;;;;;;4997274;28;20099;-72
2023/08/01 02:53:45;;;;;;;18.80;12.40;;;16.00;99.90;;;;;;4981227;28;20046;-72
2023/08/01 02:56:11;;;;;;;17.85;10.63;;;16.00;99.90;;;;;;4979929;28;20045;-72
2023/08/01 02:58:37;;;;;;;17.52;10.57;;;16.00;99.90;;;;;;4996681;28;20401;-72
2023/08/01 03:01:09;;;;;;;14.23;9.20;;;15.90;99.90;;;;;;4996639;28;20498;-72
2023/08/01 03:03:36;;;;;;;17.20;10.02;;;15.90;99.90;;;;;;4996341;28;20037;-72
2023/08/01 03:06:16;;;;;;;;;;;;;;;;;;;;;
2023/08/01 03:08:45;;;;;;;15.52;9.95;;;15.90;99.90;;;;;;4996476;28;20046;-71
2023/08/01 03:11:11;;;;;;;16.30;9.30;;;15.90;99.90;;;;;;4980257;28;20497;-71
2023/08/01 03:13:37;;;;;;;16.70;9.05;;;15.90;99.90;;;;;;4980270;28;20132;-72
2023/08/01 03:16:04;;;;;;;20.70;11.70;;;15.90;99.90;;;;;;4980530;28;20129;-73
2023/08/01 03:18:30;;;;;;;13.50;8.88;;;15.90;99.90;;;;;;4979812;28;20133;-72
2023/08/01 03:20:55;;;;;;;16.42;9.70;;;15.90;99.90;;;;;;4996075;28;20125;-71
2023/08/01 03:23:21;;;;;;;17.48;9.93;;;15.90;99.90;;;;;;4995639;28;20446;-71
2023/08/01 03:25:47;;;;;;;15.93;8.88;;;15.90;99.90;;;;;;4979518;28;20041;-69
2023/08/01 03:28:14;;;;;;;18.52;9.52;;;15.90;99.90;;;;;;4992446;28;20058;-71
2023/08/01 03:30:49;;;;;;;15.60;8.18;;;15.90;99.90;;;;;;4992831;28;20046;-70
2023/08/01 03:33:15;;;;;;;17.67;9.57;;;15.80;99.90;;;;;;4992241;28;20046;-70
2023/08/01 03:35:41;;;;;;;16.13;8.63;;;15.90;99.90;;;;;;4992326;28;20046;-70
2023/08/01 03:38:07;;;;;;;18.05;8.77;;;15.80;99.90;;;;;;4992557;28;20395;-68
2023/08/01 03:40:32;;;;;;;19.23;9.73;;;15.80;99.90;;;;;;4992164;28;20046;-68
2023/08/01 03:43:09;;;;;;;16.95;9.25;;;15.80;99.90;;;;;;4992459;28;20106;-67
2023/08/01 03:45:35;;;;;;;20.90;8.85;;;15.70;99.90;;;;;;4961683;28;20487;-68
2023/08/01 03:48:01;;;;;;;18.25;8.57;;;15.70;99.90;;;;;;4992045;28;20057;-68
2023/08/01 03:50:27;;;;;;;15.80;8.60;;;15.60;99.90;;;;;;4992031;28;20042;-68
2023/08/01 03:52:53;;;;;;;16.45;8.65;;;15.60;99.90;;;;;;4975978;28;20097;-68
2023/08/01 03:55:18;;;;;;;20.83;9.30;;;15.70;99.90;;;;;;4959852;28;20046;-68
2023/08/01 03:57:47;;;;;;;18.80;9.00;;;15.60;99.90;;;;;;4992205;28;20412;-68
2023/08/01 04:00:13;;;;;;;15.57;8.57;;;15.60;99.90;;;;;;4992042;28;20046;-68
2023/08/01 04:02:43;;;;;;;17.05;8.68;;;15.60;99.90;;;;;;4976093;28;20043;-68
2023/08/01 04:05:18;;;;;;;17.20;9.00;;;15.70;99.90;;;;;;4991870;28;20073;-68
2023/08/01 04:07:44;;;;;;;18.23;9.25;;;15.70;99.90;;;;;;4976329;28;20121;-68
2023/08/01 04:10:10;;;;;;;17.35;8.20;;;15.60;99.90;;;;;;4995655;28;20093;-68
2023/08/01 04:12:36;;;;;;;14.45;7.70;;;15.60;99.90;;;;;;4979165;28;20050;-69
2023/08/01 04:15:02;;;;;;;15.32;6.78;;;15.60;99.90;;;;;;4963214;28;20093;-68
2023/08/01 04:17:29;;;;;;;12.82;6.30;;;15.60;99.90;;;;;;4995434;28;20046;-68
2023/08/01 04:19:55;;;;;;;9.13;4.68;;;15.60;99.90;;;;;;4979285;28;20410;-68
2023/08/01 04:22:21;;;;;;;10.43;4.80;;;15.60;99.90;;;;;;4979100;28;20045;-69
2023/08/01 04:24:50;;;;;;;10.90;4.20;;;15.60;99.90;;;;;;4995356;28;20042;-68
2023/08/01 04:27:16;;;;;;;8.45;3.47;;;15.50;99.90;;;;;;4981521;28;20441;-70
2023/08/01 04:29:42;;;;;;;7.78;3.40;;;15.50;99.90;;;;;;4998709;28;20041;-70
2023/08/01 04:32:08;;;;;;;8.00;3.00;;;15.50;99.90;;;;;;4998374;28;20042;-70
2023/08/01 04:34:34;;;;;;;8.68;3.30;;;15.50;99.90;;;;;;4950584;28;20034;-70
2023/08/01 04:37:00;;;;;;;8.00;3.20;;;15.40;99.90;;;;;;4982416;28;20397;-70
2023/08/01 04:39:25;;;;;;;8.63;3.03;;;15.40;99.90;;;;;;4998143;28;20038;-69
2023/08/01 04:41:51;;;;;;;6.35;2.67;;;15.30;99.90;;;;;;4965921;28;20041;-70
2023/08/01 04:44:17;;;;;;;7.43;2.92;;;15.30;99.90;;;;;;4998324;28;20038;-71
2023/08/01 04:46:42;;;;;;;7.28;3.10;;;15.30;99.90;;;;;;4998573;28;20038;-70
2023/08/01 04:49:08;;;;;;;6.88;2.45;;;15.30;99.90;;;;;;4998626;28;20042;-70
2023/08/01 04:51:34;;;;;;;7.43;2.78;;;15.30;99.90;;;;;;4998791;28;20092;-70
2023/08/01 04:54:00;;;;;;;6.93;2.50;;;15.30;99.90;;;;;;4998483;28;20180;-71
2023/08/01 04:56:25;;;;;;;6.18;2.50;;;15.20;99.90;;;;;;4998192;28;20553;-71
2023/08/01 04:58:51;;;;;;;6.53;2.38;;;15.20;99.90;;;;;;4997920;28;20106;-70
2023/08/01 05:01:17;;;;;;;6.55;2.13;;;15.20;99.90;;;;;;4997694;28;20053;-71
2023/08/01 05:03:43;;;;;;;6.70;2.40;;;15.20;99.90;;;;;;4965784;28;20042;-70
2023/08/01 05:06:08;;;;;;;5.18;2.10;;;15.20;99.90;;;;;;4981459;28;20041;-69
2023/08/01 05:08:34;;;;;;;5.75;2.20;;;15.20;99.90;;;;;;4981370;28;20038;-68
2023/08/01 05:11:00;;;;;;;4.85;2.03;;;15.20;99.90;;;;;;4998234;28;20139;-70
2023/08/01 05:13:26;;;;;;;5.75;2.00;;;15.20;99.90;;;;;;4982101;28;20120;-70
2023/08/01 05:15:52;;;;;;;5.93;2.28;;;15.20;99.90;;;;;;4965691;28;20394;-70
2023/08/01 05:18:17;;;;;;;5.25;2.28;;;15.20;99.90;;;;;;4997493;28;20042;-70
2023/08/01 05:20:44;;;;;;;5.53;2.10;;;15.20;99.90;;;;;;4981117;28;20044;-69
2023/08/01 05:23:18;;;;;;;5.75;2.17;;;15.30;99.90;;;;;;4981190;28;20041;-70
2023/08/01 05:25:45;;;;;;;5.47;2.10;;;15.40;99.90;;;;;;4997643;28;20042;-70
2023/08/01 05:28:12;;;;;;;5.85;2.15;;;15.40;99.90;;;;;;4977660;28;20122;-70
2023/08/01 05:30:38;;;;;;;7.47;2.20;;;15.50;99.90;;;;;;4961250;28;20046;-70
2023/08/01 05:33:04;;;;;;;5.20;2.03;;;15.70;99.90;;;;;;4993862;28;20042;-69
2023/08/01 05:35:30;;;;;;;6.60;2.25;;;15.80;99.90;;;;;;4977880;28;20133;-71
2023/08/01 05:37:56;;;;;;;6.78;2.17;;;15.80;99.90;;;;;;4977978;28;20547;-67
2023/08/01 05:40:22;;;;;;;6.30;2.00;;;15.80;99.90;;;;;;4977490;28;20042;-68
2023/08/01 05:42:50;;;;;;;6.28;2.10;;;15.80;99.90;;;;;;4993594;28;20187;-67
2023/08/01 05:45:16;;;;;;;6.68;2.38;;;15.80;99.90;;;;;;4993719;28;20070;-68
2023/08/01 05:47:42;;;;;;;7.43;2.33;;;15.90;99.90;;;;;;4993553;28;20073;-68
2023/08/01 05:50:12;;;;;;;7.30;2.50;;;16.00;99.90;;;;;;4993777;28;20514;-68
2023/08/01 05:52:43;;;;;;;6.03;2.20;;;16.00;99.90;;;;;;4993055;28;20058;-67
2023/08/01 05:55:12;;;;;;;6.55;2.40;;;16.00;99.90;;;;;;4977165;28;20049;-67
2023/08/01 05:57:38;;;;;;;6.90;2.55;;;16.00;99.90;;;;;;4993540;28;20042;-66
2023/08/01 06:00:04;;;;;;;7.10;2.53;;;16.00;99.90;;;;;;4993339;28;20042;-68
2023/08/01 06:02:29;;;;;;;6.55;2.40;;;16.00;99.90;;;;;;4977205;28;20198;-68
2023/08/01 06:04:55;;;;;;;6.72;2.80;;;16.00;99.90;;;;;;4993246;28;20125;-68
2023/08/01 06:07:22;;;;;;;6.20;2.67;;;16.00;99.90;;;;;;4993215;28;20080;-68
2023/08/01 06:09:51;;;;;;;7.55;2.53;;;16.00;99.90;;;;;;4993276;28;20050;-67
2023/08/01 06:12:18;;;;;;;7.57;2.80;;;16.00;99.90;;;;;;4993420;28;20474;-67
2023/08/01 06:14:44;;;;;;;6.72;2.70;;;15.90;99.90;;;;;;4977088;28;20073;-67
2023/08/01 06:17:10;;;;;;;7.20;2.80;;;16.00;99.90;;;;;;4993121;28;20498;-67
2023/08/01 06:19:39;;;;;;;7.25;2.70;;;16.00;99.90;;;;;;4993054;28;20038;-67
2023/08/01 06:22:08;;;;;;;6.97;2.70;;;16.00;99.90;;;;;;4977147;28;20038;-67
2023/08/01 06:24:35;;;;;;;6.68;2.60;;;16.00;99.90;;;;;;4993262;28;20042;-67
2023/08/01 06:27:01;;;;;;;5.85;2.33;;;16.20;99.90;;;;;;4976853;28;20546;-67
2023/08/01 06:29:30;;;;;;;5.10;2.30;;;16.10;99.90;;;;;;4976684;28;20522;-67
2023/08/01 06:31:56;;;;;;;6.13;2.40;;;16.10;99.90;;;;;;4943956;28;20049;-68
2023/08/01 06:34:22;;;;;;;5.10;2.30;;;16.10;99.90;;;;;;4993091;28;20030;-67
2023/08/01 06:36:48;;;;;;;5.88;2.33;;;16.20;99.90;;;;;;4976782;28;20046;-68
2023/08/01 06:39:13;;;;;;;6.43;2.03;;;16.30;99.90;;;;;;4992701;28;20398;-67
2023/08/01 06:41:39;;;;;;;6.20;2.30;;;16.60;99.90;;;;;;4992604;28;20058;-67
2023/08/01 06:44:08;;;;;;;5.45;1.88;;;16.80;99.90;;;;;;4992868;28;20058;-67
2023/08/01 06:46:40;;;;;;;5.18;1.95;;;16.90;99.90;;;;;;4977054;28;20042;-71
2023/08/01 06:49:06;;;;;;;5.20;2.03;;;17.00;99.90;;;;;;4977012;28;20058;-71
2023/08/01 06:51:32;;;;;;;6.85;2.40;;;17.00;99.90;;;;;;4993095;28;20046;-72
2023/08/01 06:54:07;;;;;;;4.97;1.90;;;17.00;99.90;;;;;;4992826;28;20137;-71
2023/08/01 06:56:32;;;;;;;5.88;2.40;;;17.00;99.90;;;;;;4977883;28;20061;-70
2023/08/01 06:59:01;;;;;;;7.13;2.20;;;17.00;99.90;;;;;;4993106;28;20042;-71
2023/08/01 07:01:27;;;;;;;5.60;2.35;;;17.10;99.90;;;;;;4976465;28;20092;-70
2023/08/01 07:03:53;;;;;;;6.60;2.70;;;17.20;99.90;;;;;;4976821;28;20039;-70
2023/08/01 07:06:19;;;;;;;6.47;2.30;;;17.30;99.90;;;;;;4992588;28;20038;-71
2023/08/01 07:08:52;;;;;;;6.68;2.17;;;17.60;99.90;;;;;;4992921;28;20576;-71
2023/08/01 07:11:18;;;;;;;6.43;2.30;;;18.00;99.90;;;;;;4992609;28;20047;-71
2023/08/01 07:13:50;;;;;;;5.40;2.20;;;18.10;99.90;;;;;;4976760;28;20113;-72
2023/08/01 07:16:16;;;;;;;6.03;2.00;;;18.30;99.90;;;;;;4976645;28;20089;-71
2023/08/01 07:18:42;;;;;;;6.57;2.10;;;18.30;99.90;;;;;;4976555;28;20081;-71
2023/08/01 07:21:08;;;;;;;6.38;2.28;;;18.20;99.90;;;;;;4976312;28;20054;-71
2023/08/01 07:23:35;;;;;;;6.43;2.50;;;18.20;99.90;;;;;;4976770;28;20062;-72
2023/08/01 07:26:01;;;;;;;6.82;2.20;;;18.20;99.90;;;;;;4976601;28;20038;-72
2023/08/01 07:28:28;;;;;;;6.82;2.30;;;18.20;99.90;;;;;;4979819;28;20434;-71
2023/08/01 07:31:00;;;;;;;4.80;2.08;;;18.30;99.90;;;;;;4996139;28;20050;-71
2023/08/01 07:33:26;;;;;;;5.85;1.90;;;18.80;99.90;;;;;;4996302;28;20042;-71
2023/08/01 07:35:52;;;;;;;7.45;2.08;;;19.00;99.90;;;;;;4996304;28;20052;-71
2023/08/01 07:38:21;;;;;;;6.18;1.90;;;19.10;99.90;;;;;;4996027;28;20532;-71
2023/08/01 07:41:07;;;;;;;5.00;1.80;;;19.00;99.90;;;;;;4996169;28;20073;-72
2023/08/01 07:43:53;;;;;;;5.68;1.83;;;18.90;99.90;;;;;;4983888;28;20410;-72
2023/08/01 07:46:19;;;;;;;7.10;1.80;;;18.90;99.90;;;;;;5019536;28;20382;-72
2023/08/01 07:48:48;;;;;;;5.53;1.80;;;18.80;99.90;;;;;;5000789;28;20042;-73
2023/08/01 07:51:18;;;;;;;7.32;1.92;;;18.80;99.90;;;;;;4969674;28;20498;-72
2023/08/01 07:53:43;;;;;;;6.35;1.73;;;18.70;99.90;;;;;;4983850;28;20041;-73
2023/08/01 07:56:22;;;;;;;6.50;1.85;;;18.60;99.90;;;;;;4999442;28;20045;-70
2023/08/01 07:58:47;;;;;;;5.97;2.00;;;18.50;99.90;;;;;;4999302;28;20193;-71
2023/08/01 08:01:13;;;;;;;6.05;2.08;;;18.30;99.90;;;;;;4998872;28;20132;-71
2023/08/01 08:03:39;;;;;;;8.82;2.30;;;18.20;99.90;;;;;;4998969;28;20096;-71
2023/08/01 08:06:05;;;;;;;7.45;2.17;;;18.10;99.90;;;;;;4983096;28;20046;-71
2023/08/01 08:08:36;;;;;;;7.88;2.58;;;18.00;99.90;;;;;;5016605;28;20037;-71
2023/08/01 08:11:05;;;;;;;6.72;2.22;;;17.90;99.90;;;;;;4983602;28;20104;-71
2023/08/01 08:13:37;;;;;;;7.68;2.40;;;17.80;99.90;;;;;;4966670;28;20482;-71
2023/08/01 08:16:04;;;;;;;7.03;2.22;;;17.70;99.90;;;;;;4998019;28;20089;-71
2023/08/01 08:18:30;;;;;;;6.30;2.15;;;17.60;99.90;;;;;;4982869;28;20069;-71
2023/08/01 08:20:56;;;;;;;7.85;2.35;;;17.60;99.90;;;;;;4982515;28;20046;-72
2023/08/01 08:23:22;;;;;;;8.15;2.53;;;17.60;99.90;;;;;;4998512;28;20049;-72
2023/08/01 08:25:48;;;;;;;7.35;2.40;;;17.60;99.90;;;;;;4982288;28;20050;-71
2023/08/01 08:28:14;;;;;;;7.13;2.25;;;17.50;99.90;;;;;;4998451;28;20054;-71
2023/08/01 08:30:47;;;;;;;7.80;2.50;;;17.40;99.90;;;;;;4998425;28;20128;-70
2023/08/01 08:33:20;;;;;;;8.75;2.70;;;17.50;99.90;;;;;;4966783;28;20081;-71
2023/08/01 08:35:59;;;;;;;6.68;2.28;;;17.50;99.90;;;;;;4998021;28;20046;-71
2023/08/01 08:38:25;;;;;;;7.63;2.20;;;17.40;99.90;;;;;;4997996;28;20046;-70
2023/08/01 08:41:27;;;;;;;7.72;2.42;;;17.30;99.90;;;;;;4997967;28;20068;-70
2023/08/01 08:44:02;;;;;;;7.65;2.67;;;17.20;99.90;;;;;;4998288;28;20041;-70
2023/08/01 08:46:29;;;;;;;8.20;2.28;;;17.10;99.90;;;;;;4998044;28;20045;-70
2023/08/01 08:49:00;;;;;;;7.40;2.50;;;17.00;99.90;;;;;;4998304;28;20034;-70
2023/08/01 08:51:36;;;;;;;6.20;2.28;;;16.90;99.90;;;;;;4965834;28;20049;-71
2023/08/01 08:54:06;;;;;;;6.93;2.47;;;16.90;99.90;;;;;;4965926;28;20049;-69
2023/08/01 08:56:40;;;;;;;9.18;2.60;;;16.80;99.90;;;;;;4997897;28;20074;-70
2023/08/01 08:59:12;;;;;;;7.38;2.60;;;16.70;99.90;;;;;;4997842;28;20442;-70
2023/08/01 09:01:40;;;;;;;9.05;2.60;;;16.70;99.90;;;;;;4997784;28;20038;-70
2023/08/01 09:04:10;;;;;;;8.75;2.70;;;16.70;99.90;;;;;;4965485;28;20513;-70
2023/08/01 09:06:51;;;;;;;7.72;2.50;;;16.70;99.90;;;;;;4981573;28;20085;-71
2023/08/01 09:09:18;;;;;;;8.63;2.78;;;16.60;99.90;;;;;;4981512;28;20125;-70
2023/08/01 09:11:52;;;;;;;8.98;2.70;;;16.60;99.90;;;;;;4981891;28;20092;-70
2023/08/01 09:14:22;;;;;;;7.13;2.63;;;16.60;99.90;;;;;;4982263;28;20046;-70
2023/08/01 09:16:48;;;;;;;7.78;2.83;;;16.70;99.90;;;;;;4997714;28;20105;-70
2023/08/01 09:19:19;;;;;;;9.00;2.80;;;16.70;99.90;;;;;;4997556;28;20045;-69
2023/08/01 09:21:46;;;;;;;9.85;3.05;;;16.70;99.90;;;;;;4997263;28;20041;-70
2023/08/01 09:24:17;;;;;;;7.60;2.90;;;16.70;99.90;;;;;;4997662;28;20486;-70
2023/08/01 09:26:43;;;;;;;9.65;3.22;;;16.70;99.90;;;;;;4997175;28;20042;-70
2023/08/01 09:29:09;;;;;;;8.10;3.03;;;16.70;99.90;;;;;;4997016;28;20383;-70
2023/08/01 09:31:40;;;;;;;9.35;3.17;;;16.80;99.90;;;;;;4981305;28;20057;-69
2023/08/01 09:34:21;;;;;;;10.03;3.90;;;16.90;99.90;;;;;;4980975;28;20100;-70
2023/08/01 09:36:49;;;;;;;11.07;3.78;;;17.10;99.90;;;;;;4997062;28;20199;-70
2023/08/01 09:39:17;;;;;;;9.13;3.45;;;17.30;99.90;;;;;;4996883;28;20104;-70
2023/08/01 09:41:43;;;;;;;9.07;3.42;;;17.40;99.90;;;;;;4997002;28;20128;-69
2023/08/01 09:44:16;;;;;;;9.00;3.42;;;17.40;99.90;;;;;;4980774;28;20104;-70
2023/08/01 09:46:43;;;;;;;9.63;3.50;;;17.40;99.90;;;;;;4997229;28;20116;-70
2023/08/01 09:49:13;;;;;;;10.07;3.72;;;17.30;99.90;;;;;;4997230;28;20485;-70
2023/08/01 09:51:49;;;;;;;7.80;3.05;;;17.20;99.90;;;;;;4996885;28;20041;-70
2023/08/01 09:54:17;;;;;;;11.05;3.47;;;17.10;99.90;;;;;;4997048;28;20503;-70
2023/08/01 09:56:52;;;;;;;6.53;2.42;;;17.00;99.90;;;;;;4996081;28;20081;-70
2023/08/01 09:59:23;;;;;;;7.90;2.30;;;16.90;99.90;;;;;;4980815;28;20037;-70
2023/08/01 10:01:50;;;;;;;6.82;2.22;;;16.80;99.90;;;;;;4996500;28;20054;-70
2023/08/01 10:04:34;;;;;;;7.53;2.55;;;16.80;99.90;;;;;;4996610;28;20046;-70
2023/08/01 10:07:08;;;;;;;6.70;2.10;;;17.00;99.90;;;;;;4996752;28;20410;-70
2023/08/01 10:09:43;;;;;;;6.05;2.10;;;17.30;99.90;;;;;;4996650;28;20069;-71
2023/08/01 10:12:12;;;;;;;7.00;2.20;;;17.60;99.90;;;;;;4996504;28;20050;-69
2023/08/01 10:14:39;;;;;;;6.88;2.35;;;17.80;99.90;;;;;;4996504;28;20045;-70
2023/08/01 10:17:05;;;;;;;7.35;2.40;;;17.80;99.90;;;;;;4996466;28;20049;-68
2023/08/01 10:19:38;;;;;;;7.57;2.08;;;18.00;99.90;;;;;;4996303;28;20041;-68
2023/08/01 10:22:13;;;;;;;6.07;2.03;;;18.00;99.90;;;;;;4981074;28;20510;-68
2023/08/01 10:24:39;;;;;;;6.78;2.30;;;18.10;99.90;;;;;;4996317;28;20126;-68
2023/08/01 10:27:24;;;;;;;6.80;2.42;;;18.20;99.90;;;;;;4996420;28;20492;-68
2023/08/01 10:30:04;;;;;;;6.22;2.20;;;18.30;99.90;;;;;;4995769;28;20093;-67
2023/08/01 10:32:39;;;;;;;6.90;2.30;;;18.60;99.90;;;;;;4996171;28;20478;-66
2023/08/01 10:35:06;;;;;;;7.07;2.30;;;18.80;99.90;;;;;;4996364;28;20400;-67
2023/08/01 10:37:48;;;;;;;6.25;2.20;;;18.80;99.90;;;;;;4995987;28;20046;-67
2023/08/01 10:40:14;;;;;;;5.82;1.92;;;18.90;99.90;;;;;;4995920;28;20081;-67
2023/08/01 10:42:50;;;;;;;5.53;1.80;;;18.80;99.90;;;;;;4996089;28;20509;-69
2023/08/01 10:45:23;;;;;;;6.20;1.95;;;18.60;99.90;;;;;;4980297;28;20049;-68
2023/08/01 10:47:52;;;;;;;7.28;2.30;;;18.40;99.90;;;;;;4995889;28;20129;-69
2023/08/01 10:50:18;;;;;;;6.47;2.20;;;18.30;99.90;;;;;;4996128;28;20495;-68
2023/08/01 10:52:46;;;;;;;6.82;2.15;;;18.20;99.90;;;;;;4995862;28;20052;-69
2023/08/01 10:55:12;;;;;;;7.40;2.50;;;18.00;99.90;;;;;;4979750;28;20038;-68
2023/08/01 10:57:47;;;;;;;8.00;2.40;;;17.90;99.90;;;;;;4996088;28;20490;-68
2023/08/01 11:00:17;;;;;;;6.22;2.35;;;17.90;99.90;;;;;;4995853;28;20049;-68
2023/08/01 11:02:51;;;;;;;7.97;2.45;;;17.90;99.90;;;;;;4995732;28;20073;-68
2023/08/01 11:05:18;;;;;;;7.82;2.70;;;17.80;99.90;;;;;;4979689;28;20042;-68
2023/08/01 11:07:54;;;;;;;7.07;2.53;;;17.90;99.90;;;;;;4996124;28;20040;-68
2023/08/01 11:10:20;;;;;;;8.45;2.35;;;17.90;99.90;;;;;;4995751;28;20045;-67
2023/08/01 11:12:46;;;;;;;7.57;2.72;;;17.90;99.90;;;;;;4995664;28;20042;-68
2023/08/01 11:15:14;;;;;;;6.93;2.78;;;17.80;99.90;;;;;;4979484;28;20045;-69
2023/08/01 11:17:56;;;;;;;7.82;2.63;;;17.80;99.90;;;;;;4981022;28;20072;-69
2023/08/01 11:20:24;;;;;;;9.23;2.53;;;17.80;99.90;;;;;;4983408;28;20409;-68
2023/08/01 11:23:00;;;;;;;8.15;2.50;;;17.80;99.90;;;;;;4999915;28;20073;-69
2023/08/01 11:25:45;;;;;;;8.98;2.50;;;17.70;99.90;;;;;;4999981;28;20041;-69
2023/08/01 11:28:16;;;;;;;7.55;2.25;;;17.70;99.90;;;;;;4999792;28;20050;-70
2023/08/01 11:30:42;;;;;;;9.13;2.50;;;17.60;99.90;;;;;;4999501;28;20151;-70
2023/08/01 11:33:20;;;;;;;7.88;2.05;;;17.70;99.90;;;;;;4983225;28;20046;-71
2023/08/01 11:35:56;;;;;;;7.65;1.85;;;17.60;99.90;;;;;;4999767;28;20056;-70
2023/08/01 11:38:29;;;;;;;6.55;1.92;;;17.80;99.90;;;;;;4983466;28;20057;-70
2023/08/01 11:40:57;;;;;;;8.55;2.10;;;18.10;99.90;;;;;;4999097;28;20042;-71
2023/08/01 11:43:23;;;;;;;8.52;2.50;;;18.40;99.90;;;;;;4999627;28;20049;-71
2023/08/01 11:45:54;;;;;;;7.00;2.03;;;18.50;99.90;;;;;;4999175;28;20042;-70
2023/08/01 11:48:24;;;;;;;6.63;2.13;;;18.50;99.90;;;;;;4999311;28;20042;-70
2023/08/01 11:50:57;;;;;;;7.43;2.00;;;18.30;99.90;;;;;;4982981;28;20045;-69
2023/08/01 11:53:23;;;;;;;8.52;2.20;;;18.10;99.90;;;;;;4999206;28;20100;-70
2023/08/01 11:55:52;;;;;;;6.35;1.92;;;17.90;99.90;;;;;;4999317;28;20401;-70
2023/08/01 11:58:59;;;;;;;9.73;2.28;;;17.70;99.90;;;;;;4999002;28;20042;-70
2023/08/01 12:01:25;;;;;;;7.20;2.08;;;17.50;99.90;;;;;;4996362;28;20564;-71
2023/08/01 12:03:58;;;;;;;8.20;2.13;;;17.40;99.90;;;;;;4999049;28;20128;-71
2023/08/01 12:06:24;;;;;;;7.55;2.30;;;17.30;99.90;;;;;;4998846;28;20049;-69
2023/08/01 12:08:52;;;;;;;7.70;2.08;;;17.30;99.90;;;;;;4999085;28;20096;-70
2023/08/01 12:11:27;;;;;;;6.97;2.20;;;17.40;99.90;;;;;;4998948;28;20038;-72
2023/08/01 12:14:01;;;;;;;7.22;2.22;;;17.60;99.90;;;;;;4983094;28;20049;-72
2023/08/01 12:16:26;;;;;;;7.22;2.00;;;18.00;99.90;;;;;;4999048;28;20129;-72
2023/08/01 12:18:52;;;;;;;8.38;1.90;;;18.20;99.90;;;;;;4982941;28;20505;-72
2023/08/01 12:21:18;;;;;;;6.72;1.88;;;18.20;99.90;;;;;;4998861;28;20081;-71
2023/08/01 12:23:50;;;;;;;6.70;1.40;;;18.20;99.90;;;;;;4982626;28;20034;-72
2023/08/01 12:26:16;;;;;;;5.53;1.60;;;18.20;99.90;;;;;;4967492;28;20123;-71
2023/08/01 12:28:42;;;;;;;5.82;1.60;;;18.00;99.90;;;;;;4997537;28;20109;-70
2023/08/01 12:31:08;;;;;;;8.13;1.65;;;18.00;99.90;;;;;;4966574;28;20125;-71
2023/08/01 12:33:34;;;;;;;7.88;1.70;;;18.10;99.90;;;;;;4998288;28;20164;-71
2023/08/01 12:36:00;;;;;;;6.15;1.80;;;18.10;99.90;;;;;;4982469;28;20179;-68
2023/08/01 12:38:26;;;;;;;6.97;1.70;;;18.30;99.90;;;;;;4998454;28;20050;-68
2023/08/01 12:40:52;;;;;;;6.72;1.98;;;18.50;99.90;;;;;;4998237;28;20508;-68
2023/08/01 12:43:18;;;;;;;8.00;1.83;;;18.70;99.90;;;;;;4982158;28;20038;-68
2023/08/01 12:45:44;;;;;;;6.97;1.98;;;19.00;99.90;;;;;;4982252;28;20453;-68
2023/08/01 12:48:10;;;;;;;7.75;2.03;;;19.20;99.90;;;;;;4981817;28;20042;-67
2023/08/01 12:50:35;;;;;;;8.57;2.00;;;19.30;99.90;;;;;;4981803;28;20100;-68